Map

Track Data

SID SEASON NUMBER BASIN SUBBASIN NAME ISO_TIME NATURE LAT LON WMO_WIND WMO_PRES WMO_AGENCY TRACK_TYPE DIST2LAND LANDFALL IFLAG USA_AGENCY USA_ATCF_ID USA_LAT USA_LON USA_RECORD USA_STATUS USA_WIND USA_PRES USA_SSHS USA_R34_NE USA_R34_SE USA_R34_SW USA_R34_NW USA_R50_NE USA_R50_SE USA_R50_SW USA_R50_NW USA_R64_NE USA_R64_SE USA_R64_SW USA_R64_NW USA_POCI USA_ROCI USA_RMW USA_EYE TOKYO_LAT TOKYO_LON TOKYO_GRADE TOKYO_WIND TOKYO_PRES TOKYO_R50_DIR TOKYO_R50_LONG TOKYO_R50_SHORT TOKYO_R30_DIR TOKYO_R30_LONG TOKYO_R30_SHORT TOKYO_LAND CMA_LAT CMA_LON CMA_CAT CMA_WIND CMA_PRES HKO_LAT HKO_LON HKO_CAT HKO_WIND HKO_PRES NEWDELHI_LAT NEWDELHI_LON NEWDELHI_GRADE NEWDELHI_WIND NEWDELHI_PRES NEWDELHI_CI NEWDELHI_DP NEWDELHI_POCI REUNION_LAT REUNION_LON REUNION_TYPE REUNION_WIND REUNION_PRES REUNION_TNUM REUNION_CI REUNION_RMW REUNION_R34_NE REUNION_R34_SE REUNION_R34_SW REUNION_R34_NW REUNION_R50_NE REUNION_R50_SE REUNION_R50_SW REUNION_R50_NW REUNION_R64_NE REUNION_R64_SE REUNION_R64_SW REUNION_R64_NW BOM_LAT BOM_LON BOM_TYPE BOM_WIND BOM_PRES BOM_TNUM BOM_CI BOM_RMW BOM_R34_NE BOM_R34_SE BOM_R34_SW BOM_R34_NW BOM_R50_NE BOM_R50_SE BOM_R50_SW BOM_R50_NW BOM_R64_NE BOM_R64_SE BOM_R64_SW BOM_R64_NW BOM_ROCI BOM_POCI BOM_EYE BOM_POS_METHOD BOM_PRES_METHOD NADI_LAT NADI_LON NADI_CAT NADI_WIND NADI_PRES WELLINGTON_LAT WELLINGTON_LON WELLINGTON_WIND WELLINGTON_PRES DS824_LAT DS824_LON DS824_STAGE DS824_WIND DS824_PRES TD9636_LAT TD9636_LON TD9636_STAGE TD9636_WIND TD9636_PRES TD9635_LAT TD9635_LON TD9635_WIND TD9635_PRES TD9635_ROCI NEUMANN_LAT NEUMANN_LON NEUMANN_CLASS NEUMANN_WIND NEUMANN_PRES MLC_LAT MLC_LON MLC_CLASS MLC_WIND MLC_PRES USA_GUST BOM_GUST BOM_GUST_PER REUNION_GUST REUNION_GUST_PER USA_SEAHGT USA_SEARAD_NE USA_SEARAD_SE USA_SEARAD_SW USA_SEARAD_NW STORM_SPEED STORM_DIR
2004252N32320 2004 71 NA NA NOT_NAMED 2004-09-07 12:00:00 TS 31.5000 -39.7000 25 1009 hurdat_atl main 2037 2032 O_____________ hurdat_atl AL102004 31.5000 -39.7000 TD 25 1009 -1 4 59
2004252N32320 2004 71 NA NA NOT_NAMED 2004-09-07 15:00:00 TS 31.5900 -39.5200 main 2037 2032 P_____________ AL102004 31.5900 -39.5200 TD 25 1009 -1 4 60
2004252N32320 2004 71 NA NA NOT_NAMED 2004-09-07 18:00:00 TS 31.7000 -39.3000 25 1009 hurdat_atl main 2037 2033 O_____________ hurdat_atl AL102004 31.7000 -39.3000 TD 25 1009 -1 5 60
2004252N32320 2004 71 NA NA NOT_NAMED 2004-09-07 21:00:00 TS 31.8425 -39.0150 main 2043 2033 P_____________ AL102004 31.8425 -39.0150 TD 25 1009 -1 6 59
2004252N32320 2004 71 NA NA NOT_NAMED 2004-09-08 00:00:00 TS 32.0000 -38.7000 25 1010 hurdat_atl main 2039 2035 O_____________ hurdat_atl AL102004 32.0000 -38.7000 TD 25 1010 -1 6 60
2004252N32320 2004 71 NA NA NOT_NAMED 2004-09-08 03:00:00 TS 32.1347 -38.4295 main 2045 2036 P_____________ AL102004 32.1347 -38.4295 TD 25 1010 -1 6 59
2004252N32320 2004 71 NA NA NOT_NAMED 2004-09-08 06:00:00 TS 32.3000 -38.1000 25 1011 hurdat_atl main 2043 2039 O_____________ hurdat_atl AL102004 32.3000 -38.1000 TD 25 1011 -1 8 62
2004252N32320 2004 71 NA NA NOT_NAMED 2004-09-08 09:00:00 TS 32.4975 -37.6369 main 2042 2001 P_____________ AL102004 32.4975 -37.6369 TD 25 1011 -1 10 59
2004252N32320 2004 71 NA NA NOT_NAMED 2004-09-08 12:00:00 TS 32.8000 -37.1000 25 1012 hurdat_atl main 2001 1961 O_____________ hurdat_atl AL102004 32.8000 -37.1000 TD 25 1012 -1 12 51
2004252N32320 2004 71 NA NA NOT_NAMED 2004-09-08 15:00:00 TS 33.2250 -36.5496 main 1954 1922 P_____________ AL102004 33.2250 -36.5496 TD 25 1012 -1 14 43
2004252N32320 2004 71 NA NA NOT_NAMED 2004-09-08 18:00:00 TS 33.8000 -36.0000 25 1012 hurdat_atl main 1922 1898 O_____________ hurdat_atl AL102004 33.8000 -36.0000 TD 25 1012 -1 16 34
2004252N32320 2004 71 NA NA NOT_NAMED 2004-09-08 21:00:00 TS 34.5574 -35.4709 main 1901 1878 P_____________ AL102004 34.5574 -35.4709 TD 27 1012 -1 17 29
2004252N32320 2004 71 NA NA NOT_NAMED 2004-09-09 00:00:00 TS 35.3000 -35.0000 30 1012 hurdat_atl main 1882 1867 O_____________ hurdat_atl AL102004 35.3000 -35.0000 TD 30 1012 -1 1016 150 40 15 28
2004252N32320 2004 71 NA NA NOT_NAMED 2004-09-09 03:00:00 TS 35.8396 -34.6266 main 1867 1860 P_____________ AL102004 35.8396 -34.6266 TD 30 1012 -1 11 32
2004252N32320 2004 71 NA NA NOT_NAMED 2004-09-09 06:00:00 TS 36.2000 -34.3000 30 1013 hurdat_atl main 1860 1836 O_____________ hurdat_atl AL102004 36.2000 -34.3000 TD 30 1013 -1 40 8 43
2004252N32320 2004 71 NA NA NOT_NAMED 2004-09-09 09:00:00 TS 36.4551 -33.9124 main 1840 1816 P_____________ AL102004 36.4551 -33.9124 TD 30 1013 -1 6 62
2004252N32320 2004 71 NA NA NOT_NAMED 2004-09-09 12:00:00 DS 36.5000 -33.6000 30 1013 hurdat_atl main 1816 1799 O_____________ hurdat_atl AL102004 36.5000 -33.6000 LO 30 1013 -3 40 3 118
2004252N32320 2004 71 NA NA NOT_NAMED 2004-09-09 15:00:00 DS 36.2944 -33.5302 main 1799 1777 P_____________ AL102004 36.2944 -33.5302 LO 30 1013 -3 5 162
2004252N32320 2004 71 NA NA NOT_NAMED 2004-09-09 18:00:00 DS 36.0000 -33.4000 30 1014 hurdat_atl main 1777 1735 O_____________ hurdat_atl AL102004 36.0000 -33.4000 LO 30 1014 -3 35 7 134
2004252N32320 2004 71 NA NA NOT_NAMED 2004-09-09 21:00:00 DS 35.8277 -32.9323 main 1727 1673 P_____________ AL102004 35.8277 -32.9323 LO 30 1014 -3 9 109
2004252N32320 2004 71 NA NA NOT_NAMED 2004-09-10 00:00:00 DS 35.7000 -32.3000 30 1014 hurdat_atl main 1673 1619 O_____________ hurdat_atl AL102004 35.7000 -32.3000 LO 30 1014 -3 10 103
2004252N32320 2004 71 NA NA NOT_NAMED 2004-09-10 03:00:00 DS 35.5921 -31.6803 main 1619 1558 P_____________ AL102004 35.5921 -31.6803 LO 27 1014 -3 11 101
2004252N32320 2004 71 NA NA NOT_NAMED 2004-09-10 06:00:00 DS 35.5000 -31.0000 25 1015 hurdat_atl main 1558 1496 O_____________ hurdat_atl AL102004 35.5000 -31.0000 LO 25 1015 -3 12 99
2004252N32320 2004 71 NA NA NOT_NAMED 2004-09-10 09:00:00 DS 35.4035 -30.2645 main 1496 1428 P_____________ AL102004 35.4035 -30.2645 LO 22 1015 -3 12 99
2004252N32320 2004 71 NA NA NOT_NAMED 2004-09-10 12:00:00 DS 35.3000 -29.5000 20 1016 hurdat_atl main 1428 O_____________ hurdat_atl AL102004 35.3000 -29.5000 LO 20 1016 -3 13 99

About IBTrACS Database

This database is a web-friendly format of International Best Track Archive for Climate Stewardship (IBTrACS), a global best track data archive curated by NOAA dating back to 1842.

Updated: 2021-10-19